MET5914 - Philadelphia to Boston

Bombardier Dash-8-Q400
850AV
1 hr 15 mins
244 nm
Scheduled - Daily

Bid/PiRep Status

Bid was submitted on Dec 21 2016.

PiRep # 74430: Approved by Sean Doyle on December 23rd, 2016 4:06 UTC

Departure

Departing from
Philadelphia (PHL)
Departure gate
Scheduled Departure
GMT 1935
Local 1435
METAR KPHL 260454Z 30019G29KT 10SM FEW047 SCT140 08/M02 A2976 RMK AO2 PK WND 29031/0442 PRESRR SLP078 T00831017 402280083 $
TAF KPHL 252330Z 2600/2706 30014G24KT P6SM VCSH OVC050 FM260200 30018G26KT P6SM BKN050 FM260800 30014KT P6SM FEW060 FM261400 29015G25KT P6SM BKN060 FM262300 29010KT P6SM FEW060
  • No charts available

Arrival

Arriving at
Boston (BOS)
Arrival gate
Scheduled Arrival
GMT 2050
Local 1550
METAR KBOS 260454Z 30014G21KT 10SM FEW015 SCT026 OVC040 09/07 A2947 RMK AO2 RAE44 SLP979 P0003 T00940067 402060094
TAF KBOS 260051Z 2601/2706 17007KT 3SM BR VCSH BKN007 OVC014 FM260300 24010G20KT 3SM -SHRA OVC015 FM260500 28012G26KT P6SM VCSH BKN045 FM260600 29013G27KT P6SM BKN040 FM260700 29014G28KT P6SM SCT060 FM270300 26008KT P6SM SKC

Route Map

Planning Resources

KPHL-BRAND-RBV-JOANI-CREEL-SHLEP-HOFFI-HTO-SEY-BURDY-KBOS
DITCH V312 DRIFT V139 MANTA V308 ORW V16 WOONS
BRAND DCT RBV DCT JOANI DCT CREEL DCT SHLEP DCT HOFFI DCT HTO DCT SEY DCT BURDY DCT
PHLS DITCH V312 DRIFT V308 ORW WOONS
DITCH V312 DRIFT V139 PLUME V268 KOPPY V308 RICED V139 BEDYA V268 SHLEP V139 BEADS V308 ORW WOONS
Route:
OFP Layout:
Units:
Detailed Navlog:
ETOPS Planning:
Plan Stepclimbs:
Runway Analysis:
Include NOTAMS:
FIR NOTAMS:
Flight Maps:

Return Flights

MET5911
Bombardier Dash-8-Q400
1240 GMT
MET5913
Bombardier Dash-8-Q400
1740 GMT
MET5917
Bombardier Dash-8-Q400
0340 GMT

Popularity

Hub Current Bids PiReps this month Total PiReps
KMCI 0 0 1
KLAX 0 0 3
KBOS 0 0 4